sensor_id;sensor_type;location;lat;lon;timestamp;P1;durP1;ratioP1;P2;durP2;ratioP2
3559;SDS011;1794;48.804;9.156;2022-09-09T00:00:19;5.00;;;1.63;;
3559;SDS011;1794;48.804;9.156;2022-09-09T00:02:50;2.57;;;1.37;;
3559;SDS011;1794;48.804;9.156;2022-09-09T00:05:27;4.27;;;1.87;;
3559;SDS011;1794;48.804;9.156;2022-09-09T00:07:59;5.10;;;1.90;;
3559;SDS011;1794;48.804;9.156;2022-09-09T00:10:29;2.30;;;1.60;;
3559;SDS011;1794;48.804;9.156;2022-09-09T00:13:00;2.07;;;1.67;;
3559;SDS011;1794;48.804;9.156;2022-09-09T00:15:36;3.10;;;1.77;;
3559;SDS011;1794;48.804;9.156;2022-09-09T00:18:09;2.00;;;1.40;;
3559;SDS011;1794;48.804;9.156;2022-09-09T00:20:44;3.53;;;1.67;;
3559;SDS011;1794;48.804;9.156;2022-09-09T00:23:17;3.73;;;1.40;;
3559;SDS011;1794;48.804;9.156;2022-09-09T00:25:53;2.70;;;1.63;;
3559;SDS011;1794;48.804;9.156;2022-09-09T00:28:26;4.50;;;2.30;;
3559;SDS011;1794;48.804;9.156;2022-09-09T00:30:57;2.20;;;1.47;;
3559;SDS011;1794;48.804;9.156;2022-09-09T00:33:27;3.33;;;1.20;;
3559;SDS011;1794;48.804;9.156;2022-09-09T00:35:57;5.53;;;1.50;;
3559;SDS011;1794;48.804;9.156;2022-09-09T00:38:27;2.73;;;1.33;;
3559;SDS011;1794;48.804;9.156;2022-09-09T00:41:00;4.07;;;1.23;;
3559;SDS011;1794;48.804;9.156;2022-09-09T00:43:32;2.17;;;1.10;;
3559;SDS011;1794;48.804;9.156;2022-09-09T00:46:09;8.43;;;1.20;;
3559;SDS011;1794;48.804;9.156;2022-09-09T00:48:50;2.07;;;1.30;;
3559;SDS011;1794;48.804;9.156;2022-09-09T00:51:25;3.33;;;1.33;;
3559;SDS011;1794;48.804;9.156;2022-09-09T00:54:13;3.20;;;1.27;;
3559;SDS011;1794;48.804;9.156;2022-09-09T00:56:51;5.40;;;1.53;;
3559;SDS011;1794;48.804;9.156;2022-09-09T00:59:28;3.47;;;1.20;;
3559;SDS011;1794;48.804;9.156;2022-09-09T01:02:02;3.20;;;1.20;;
3559;SDS011;1794;48.804;9.156;2022-09-09T01:04:35;4.97;;;1.30;;
3559;SDS011;1794;48.804;9.156;2022-09-09T01:07:04;3.67;;;1.60;;
3559;SDS011;1794;48.804;9.156;2022-09-09T01:09:42;3.03;;;0.83;;
3559;SDS011;1794;48.804;9.156;2022-09-09T01:12:23;1.90;;;1.47;;
3559;SDS011;1794;48.804;9.156;2022-09-09T01:14:52;4.17;;;1.63;;
3559;SDS011;1794;48.804;9.156;2022-09-09T01:17:26;2.60;;;1.27;;
3559;SDS011;1794;48.804;9.156;2022-09-09T01:20:00;2.13;;;1.20;;
3559;SDS011;1794;48.804;9.156;2022-09-09T01:22:33;2.63;;;1.13;;
3559;SDS011;1794;48.804;9.156;2022-09-09T01:27:54;1.30;;;1.00;;
3559;SDS011;1794;48.804;9.156;2022-09-09T01:30:23;5.40;;;1.20;;
3559;SDS011;1794;48.804;9.156;2022-09-09T01:32:53;1.90;;;1.00;;
3559;SDS011;1794;48.804;9.156;2022-09-09T01:35:27;2.20;;;1.20;;
3559;SDS011;1794;48.804;9.156;2022-09-09T01:37:58;3.50;;;1.57;;
3559;SDS011;1794;48.804;9.156;2022-09-09T01:40:25;3.27;;;1.40;;
3559;SDS011;1794;48.804;9.156;2022-09-09T01:42:52;3.83;;;1.17;;
3559;SDS011;1794;48.804;9.156;2022-09-09T01:45:21;2.77;;;1.10;;
3559;SDS011;1794;48.804;9.156;2022-09-09T01:47:49;3.00;;;1.30;;
3559;SDS011;1794;48.804;9.156;2022-09-09T01:50:18;2.73;;;1.07;;
3559;SDS011;1794;48.804;9.156;2022-09-09T01:52:46;3.50;;;1.50;;
3559;SDS011;1794;48.804;9.156;2022-09-09T01:55:16;2.60;;;1.50;;
3559;SDS011;1794;48.804;9.156;2022-09-09T01:57:48;3.30;;;1.47;;
3559;SDS011;1794;48.804;9.156;2022-09-09T02:00:23;3.40;;;1.50;;
3559;SDS011;1794;48.804;9.156;2022-09-09T02:02:53;3.93;;;1.23;;
3559;SDS011;1794;48.804;9.156;2022-09-09T02:05:28;4.87;;;1.50;;
3559;SDS011;1794;48.804;9.156;2022-09-09T02:08:03;3.77;;;1.37;;
3559;SDS011;1794;48.804;9.156;2022-09-09T02:10:34;2.97;;;1.30;;
3559;SDS011;1794;48.804;9.156;2022-09-09T02:13:07;4.07;;;1.50;;
3559;SDS011;1794;48.804;9.156;2022-09-09T02:15:38;2.70;;;1.30;;
3559;SDS011;1794;48.804;9.156;2022-09-09T02:18:13;3.87;;;1.73;;
3559;SDS011;1794;48.804;9.156;2022-09-09T02:20:43;3.33;;;1.33;;
3559;SDS011;1794;48.804;9.156;2022-09-09T02:23:10;2.20;;;1.10;;
3559;SDS011;1794;48.804;9.156;2022-09-09T02:25:38;2.67;;;1.30;;
3559;SDS011;1794;48.804;9.156;2022-09-09T02:28:08;6.30;;;1.63;;
3559;SDS011;1794;48.804;9.156;2022-09-09T02:30:39;5.00;;;1.20;;
3559;SDS011;1794;48.804;9.156;2022-09-09T02:33:07;4.60;;;1.30;;
3559;SDS011;1794;48.804;9.156;2022-09-09T02:35:37;5.43;;;1.60;;
3559;SDS011;1794;48.804;9.156;2022-09-09T02:38:06;4.43;;;1.30;;
3559;SDS011;1794;48.804;9.156;2022-09-09T02:40:36;3.60;;;1.50;;
3559;SDS011;1794;48.804;9.156;2022-09-09T02:43:03;1.60;;;0.93;;
3559;SDS011;1794;48.804;9.156;2022-09-09T02:45:31;2.87;;;1.60;;
3559;SDS011;1794;48.804;9.156;2022-09-09T02:48:07;3.33;;;1.10;;
3559;SDS011;1794;48.804;9.156;2022-09-09T02:50:39;1.87;;;1.40;;
3559;SDS011;1794;48.804;9.156;2022-09-09T02:53:15;2.23;;;1.40;;
3559;SDS011;1794;48.804;9.156;2022-09-09T02:55:46;4.97;;;1.80;;
3559;SDS011;1794;48.804;9.156;2022-09-09T02:58:15;4.00;;;1.60;;
3559;SDS011;1794;48.804;9.156;2022-09-09T03:00:44;3.17;;;1.40;;
3559;SDS011;1794;48.804;9.156;2022-09-09T03:03:14;4.70;;;1.43;;
3559;SDS011;1794;48.804;9.156;2022-09-09T03:05:42;2.90;;;1.60;;
3559;SDS011;1794;48.804;9.156;2022-09-09T03:08:10;5.70;;;1.77;;
3559;SDS011;1794;48.804;9.156;2022-09-09T03:10:38;3.20;;;1.17;;
3559;SDS011;1794;48.804;9.156;2022-09-09T03:13:05;2.20;;;1.63;;
3559;SDS011;1794;48.804;9.156;2022-09-09T03:15:33;6.63;;;1.20;;
3559;SDS011;1794;48.804;9.156;2022-09-09T03:18:00;2.30;;;1.30;;
3559;SDS011;1794;48.804;9.156;2022-09-09T03:20:29;3.47;;;1.60;;
3559;SDS011;1794;48.804;9.156;2022-09-09T03:22:58;1.90;;;1.30;;
3559;SDS011;1794;48.804;9.156;2022-09-09T03:25:26;2.00;;;1.20;;
3559;SDS011;1794;48.804;9.156;2022-09-09T03:27:55;2.93;;;1.57;;
3559;SDS011;1794;48.804;9.156;2022-09-09T03:30:22;2.83;;;1.50;;
3559;SDS011;1794;48.804;9.156;2022-09-09T03:32:50;2.53;;;1.63;;
3559;SDS011;1794;48.804;9.156;2022-09-09T03:35:17;2.37;;;1.20;;
3559;SDS011;1794;48.804;9.156;2022-09-09T03:37:45;2.00;;;1.40;;
3559;SDS011;1794;48.804;9.156;2022-09-09T03:40:12;2.70;;;1.43;;
3559;SDS011;1794;48.804;9.156;2022-09-09T03:42:40;4.80;;;1.97;;
3559;SDS011;1794;48.804;9.156;2022-09-09T03:45:07;2.17;;;1.13;;
3559;SDS011;1794;48.804;9.156;2022-09-09T03:47:35;3.30;;;1.40;;
3559;SDS011;1794;48.804;9.156;2022-09-09T03:50:03;1.77;;;1.10;;
3559;SDS011;1794;48.804;9.156;2022-09-09T03:52:34;2.97;;;1.03;;
3559;SDS011;1794;48.804;9.156;2022-09-09T03:55:02;8.63;;;1.13;;
3559;SDS011;1794;48.804;9.156;2022-09-09T03:57:30;2.33;;;1.00;;
3559;SDS011;1794;48.804;9.156;2022-09-09T03:59:59;1.67;;;0.93;;
3559;SDS011;1794;48.804;9.156;2022-09-09T04:02:27;3.60;;;1.00;;
3559;SDS011;1794;48.804;9.156;2022-09-09T04:04:53;2.70;;;1.00;;
3559;SDS011;1794;48.804;9.156;2022-09-09T04:07:21;2.47;;;1.37;;
3559;SDS011;1794;48.804;9.156;2022-09-09T04:09:48;1.30;;;0.90;;
3559;SDS011;1794;48.804;9.156;2022-09-09T04:12:16;8.20;;;1.30;;
3559;SDS011;1794;48.804;9.156;2022-09-09T04:14:42;1.30;;;0.80;;
3559;SDS011;1794;48.804;9.156;2022-09-09T04:17:09;1.80;;;0.80;;
3559;SDS011;1794;48.804;9.156;2022-09-09T04:19:36;2.17;;;1.43;;
3559;SDS011;1794;48.804;9.156;2022-09-09T04:22:03;2.03;;;1.10;;
3559;SDS011;1794;48.804;9.156;2022-09-09T04:24:29;2.40;;;0.90;;
3559;SDS011;1794;48.804;9.156;2022-09-09T04:26:56;2.53;;;0.80;;
3559;SDS011;1794;48.804;9.156;2022-09-09T04:29:24;1.43;;;0.70;;
3559;SDS011;1794;48.804;9.156;2022-09-09T04:31:51;1.30;;;0.70;;
3559;SDS011;1794;48.804;9.156;2022-09-09T04:34:18;2.93;;;1.10;;
3559;SDS011;1794;48.804;9.156;2022-09-09T04:36:44;1.30;;;0.70;;
3559;SDS011;1794;48.804;9.156;2022-09-09T04:39:11;5.30;;;1.30;;
3559;SDS011;1794;48.804;9.156;2022-09-09T04:41:38;2.20;;;1.10;;
3559;SDS011;1794;48.804;9.156;2022-09-09T04:44:05;4.20;;;1.00;;
3559;SDS011;1794;48.804;9.156;2022-09-09T04:46:33;2.20;;;1.00;;
3559;SDS011;1794;48.804;9.156;2022-09-09T04:49:00;3.00;;;1.17;;
3559;SDS011;1794;48.804;9.156;2022-09-09T04:51:27;3.43;;;0.93;;
3559;SDS011;1794;48.804;9.156;2022-09-09T04:53:56;1.80;;;1.00;;
3559;SDS011;1794;48.804;9.156;2022-09-09T04:56:23;2.40;;;1.47;;
3559;SDS011;1794;48.804;9.156;2022-09-09T04:58:51;1.80;;;0.90;;
3559;SDS011;1794;48.804;9.156;2022-09-09T05:01:20;3.20;;;1.10;;
3559;SDS011;1794;48.804;9.156;2022-09-09T05:03:49;1.67;;;0.90;;
3559;SDS011;1794;48.804;9.156;2022-09-09T05:06:17;2.00;;;1.03;;
3559;SDS011;1794;48.804;9.156;2022-09-09T05:08:46;2.10;;;1.10;;
3559;SDS011;1794;48.804;9.156;2022-09-09T05:11:13;5.27;;;1.40;;
3559;SDS011;1794;48.804;9.156;2022-09-09T05:13:42;1.87;;;1.13;;
3559;SDS011;1794;48.804;9.156;2022-09-09T05:16:09;2.50;;;1.00;;
3559;SDS011;1794;48.804;9.156;2022-09-09T05:18:36;1.73;;;1.10;;
3559;SDS011;1794;48.804;9.156;2022-09-09T05:21:05;1.80;;;0.80;;
3559;SDS011;1794;48.804;9.156;2022-09-09T05:23:32;2.93;;;0.80;;
3559;SDS011;1794;48.804;9.156;2022-09-09T05:25:59;2.80;;;1.07;;
3559;SDS011;1794;48.804;9.156;2022-09-09T05:28:27;5.97;;;1.10;;
3559;SDS011;1794;48.804;9.156;2022-09-09T05:30:57;4.93;;;1.20;;
3559;SDS011;1794;48.804;9.156;2022-09-09T05:33:25;2.33;;;1.67;;
3559;SDS011;1794;48.804;9.156;2022-09-09T05:35:59;3.10;;;0.90;;
3559;SDS011;1794;48.804;9.156;2022-09-09T05:38:29;3.50;;;0.90;;
3559;SDS011;1794;48.804;9.156;2022-09-09T05:40:56;3.73;;;1.10;;
3559;SDS011;1794;48.804;9.156;2022-09-09T05:43:23;3.60;;;1.13;;
3559;SDS011;1794;48.804;9.156;2022-09-09T05:45:58;2.33;;;1.00;;
3559;SDS011;1794;48.804;9.156;2022-09-09T05:48:27;5.20;;;1.17;;
3559;SDS011;1794;48.804;9.156;2022-09-09T05:50:55;2.00;;;1.07;;
3559;SDS011;1794;48.804;9.156;2022-09-09T05:53:22;3.83;;;1.10;;
3559;SDS011;1794;48.804;9.156;2022-09-09T05:55:50;3.00;;;1.40;;
3559;SDS011;1794;48.804;9.156;2022-09-09T05:58:23;4.07;;;1.20;;
3559;SDS011;1794;48.804;9.156;2022-09-09T06:00:50;2.43;;;1.20;;
3559;SDS011;1794;48.804;9.156;2022-09-09T06:03:17;1.77;;;0.97;;
3559;SDS011;1794;48.804;9.156;2022-09-09T06:05:43;3.37;;;1.27;;
3559;SDS011;1794;48.804;9.156;2022-09-09T06:08:10;3.10;;;1.27;;
3559;SDS011;1794;48.804;9.156;2022-09-09T06:10:37;1.33;;;0.90;;
3559;SDS011;1794;48.804;9.156;2022-09-09T06:13:05;5.50;;;1.30;;
3559;SDS011;1794;48.804;9.156;2022-09-09T06:15:31;3.03;;;1.27;;
3559;SDS011;1794;48.804;9.156;2022-09-09T06:17:59;1.60;;;1.00;;
3559;SDS011;1794;48.804;9.156;2022-09-09T06:20:25;2.07;;;0.80;;
3559;SDS011;1794;48.804;9.156;2022-09-09T06:22:55;2.77;;;1.10;;
3559;SDS011;1794;48.804;9.156;2022-09-09T06:25:22;3.77;;;1.20;;
3559;SDS011;1794;48.804;9.156;2022-09-09T06:27:49;2.00;;;1.10;;
3559;SDS011;1794;48.804;9.156;2022-09-09T06:30:17;3.57;;;1.33;;
3559;SDS011;1794;48.804;9.156;2022-09-09T06:32:44;2.37;;;1.40;;
3559;SDS011;1794;48.804;9.156;2022-09-09T06:35:11;2.93;;;1.30;;
3559;SDS011;1794;48.804;9.156;2022-09-09T06:37:38;2.60;;;1.10;;
3559;SDS011;1794;48.804;9.156;2022-09-09T06:40:05;2.00;;;1.13;;
3559;SDS011;1794;48.804;9.156;2022-09-09T06:42:33;2.60;;;1.00;;
3559;SDS011;1794;48.804;9.156;2022-09-09T06:44:59;1.70;;;1.10;;
3559;SDS011;1794;48.804;9.156;2022-09-09T06:47:29;1.83;;;1.20;;
3559;SDS011;1794;48.804;9.156;2022-09-09T06:49:56;3.07;;;1.33;;
3559;SDS011;1794;48.804;9.156;2022-09-09T06:52:23;3.40;;;1.43;;
3559;SDS011;1794;48.804;9.156;2022-09-09T06:54:50;3.83;;;1.50;;
3559;SDS011;1794;48.804;9.156;2022-09-09T06:57:18;3.37;;;1.30;;
3559;SDS011;1794;48.804;9.156;2022-09-09T06:59:45;2.40;;;1.20;;
3559;SDS011;1794;48.804;9.156;2022-09-09T07:02:12;3.77;;;1.33;;
3559;SDS011;1794;48.804;9.156;2022-09-09T07:04:40;1.90;;;1.40;;
3559;SDS011;1794;48.804;9.156;2022-09-09T07:07:08;2.67;;;1.20;;
3559;SDS011;1794;48.804;9.156;2022-09-09T07:09:37;2.57;;;1.10;;
3559;SDS011;1794;48.804;9.156;2022-09-09T07:12:04;3.40;;;1.27;;
3559;SDS011;1794;48.804;9.156;2022-09-09T07:14:31;2.57;;;1.80;;
3559;SDS011;1794;48.804;9.156;2022-09-09T07:16:59;2.33;;;1.43;;
3559;SDS011;1794;48.804;9.156;2022-09-09T07:19:25;2.57;;;1.10;;
3559;SDS011;1794;48.804;9.156;2022-09-09T07:21:54;5.30;;;1.63;;
3559;SDS011;1794;48.804;9.156;2022-09-09T07:24:20;3.10;;;1.30;;
3559;SDS011;1794;48.804;9.156;2022-09-09T07:26:47;2.27;;;1.23;;
3559;SDS011;1794;48.804;9.156;2022-09-09T07:29:14;3.50;;;1.80;;
3559;SDS011;1794;48.804;9.156;2022-09-09T07:31:40;3.50;;;1.33;;
3559;SDS011;1794;48.804;9.156;2022-09-09T07:34:07;3.70;;;1.60;;
3559;SDS011;1794;48.804;9.156;2022-09-09T07:36:35;3.10;;;1.27;;
3559;SDS011;1794;48.804;9.156;2022-09-09T07:39:05;2.93;;;1.90;;
3559;SDS011;1794;48.804;9.156;2022-09-09T07:41:34;5.37;;;1.70;;
3559;SDS011;1794;48.804;9.156;2022-09-09T07:44:06;5.13;;;1.27;;
3559;SDS011;1794;48.804;9.156;2022-09-09T07:46:35;5.03;;;1.30;;
3559;SDS011;1794;48.804;9.156;2022-09-09T07:49:04;2.07;;;1.10;;
3559;SDS011;1794;48.804;9.156;2022-09-09T07:51:32;6.03;;;1.30;;
3559;SDS011;1794;48.804;9.156;2022-09-09T07:54:00;3.80;;;1.50;;
3559;SDS011;1794;48.804;9.156;2022-09-09T07:56:30;2.70;;;1.20;;
3559;SDS011;1794;48.804;9.156;2022-09-09T07:58:57;2.23;;;1.10;;
3559;SDS011;1794;48.804;9.156;2022-09-09T08:01:26;3.20;;;1.50;;
3559;SDS011;1794;48.804;9.156;2022-09-09T08:03:55;3.03;;;1.10;;
3559;SDS011;1794;48.804;9.156;2022-09-09T08:06:26;3.23;;;1.03;;
3559;SDS011;1794;48.804;9.156;2022-09-09T08:08:53;4.27;;;1.40;;
3559;SDS011;1794;48.804;9.156;2022-09-09T08:11:20;3.30;;;1.20;;
3559;SDS011;1794;48.804;9.156;2022-09-09T08:13:51;3.93;;;1.97;;
3559;SDS011;1794;48.804;9.156;2022-09-09T08:16:18;4.77;;;1.40;;
3559;SDS011;1794;48.804;9.156;2022-09-09T08:18:47;2.20;;;1.00;;
3559;SDS011;1794;48.804;9.156;2022-09-09T08:21:15;3.40;;;1.00;;
3559;SDS011;1794;48.804;9.156;2022-09-09T08:23:43;2.43;;;1.30;;
3559;SDS011;1794;48.804;9.156;2022-09-09T08:26:12;5.13;;;0.93;;
3559;SDS011;1794;48.804;9.156;2022-09-09T08:28:41;2.13;;;1.00;;
3559;SDS011;1794;48.804;9.156;2022-09-09T08:31:10;2.87;;;1.00;;
3559;SDS011;1794;48.804;9.156;2022-09-09T08:33:38;2.20;;;0.97;;
3559;SDS011;1794;48.804;9.156;2022-09-09T08:36:07;3.60;;;1.00;;
3559;SDS011;1794;48.804;9.156;2022-09-09T08:38:36;3.17;;;0.80;;
3559;SDS011;1794;48.804;9.156;2022-09-09T08:44:07;6.13;;;0.97;;
3559;SDS011;1794;48.804;9.156;2022-09-09T08:46:41;2.70;;;1.07;;
3559;SDS011;1794;48.804;9.156;2022-09-09T08:49:18;2.53;;;0.90;;
3559;SDS011;1794;48.804;9.156;2022-09-09T08:52:01;3.57;;;1.53;;
3559;SDS011;1794;48.804;9.156;2022-09-09T08:54:33;3.40;;;1.10;;
3559;SDS011;1794;48.804;9.156;2022-09-09T08:57:01;2.93;;;1.23;;
3559;SDS011;1794;48.804;9.156;2022-09-09T08:59:28;2.90;;;1.17;;
3559;SDS011;1794;48.804;9.156;2022-09-09T09:01:59;3.50;;;1.00;;
3559;SDS011;1794;48.804;9.156;2022-09-09T09:04:43;3.70;;;0.90;;
3559;SDS011;1794;48.804;9.156;2022-09-09T09:07:19;4.23;;;0.93;;
3559;SDS011;1794;48.804;9.156;2022-09-09T09:09:56;2.43;;;1.00;;
3559;SDS011;1794;48.804;9.156;2022-09-09T09:12:29;3.47;;;1.13;;
3559;SDS011;1794;48.804;9.156;2022-09-09T09:15:01;1.70;;;0.97;;
3559;SDS011;1794;48.804;9.156;2022-09-09T09:17:37;11.40;;;1.20;;
3559;SDS011;1794;48.804;9.156;2022-09-09T09:20:05;2.53;;;1.07;;
3559;SDS011;1794;48.804;9.156;2022-09-09T09:22:39;4.20;;;1.00;;
3559;SDS011;1794;48.804;9.156;2022-09-09T09:25:14;3.83;;;1.13;;
3559;SDS011;1794;48.804;9.156;2022-09-09T09:27:45;1.73;;;1.20;;
3559;SDS011;1794;48.804;9.156;2022-09-09T09:30:18;6.70;;;2.90;;
3559;SDS011;1794;48.804;9.156;2022-09-09T09:32:49;2.60;;;1.20;;
3559;SDS011;1794;48.804;9.156;2022-09-09T09:35:19;2.97;;;1.40;;
3559;SDS011;1794;48.804;9.156;2022-09-09T09:37:46;3.53;;;1.03;;
3559;SDS011;1794;48.804;9.156;2022-09-09T09:40:15;3.93;;;1.00;;
3559;SDS011;1794;48.804;9.156;2022-09-09T09:42:51;4.40;;;1.27;;
3559;SDS011;1794;48.804;9.156;2022-09-09T09:45:23;3.50;;;1.80;;
3559;SDS011;1794;48.804;9.156;2022-09-09T09:47:59;1.50;;;0.70;;
3559;SDS011;1794;48.804;9.156;2022-09-09T09:50:28;1.70;;;0.90;;
3559;SDS011;1794;48.804;9.156;2022-09-09T09:52:56;2.00;;;0.73;;
3559;SDS011;1794;48.804;9.156;2022-09-09T09:55:25;1.80;;;0.70;;
3559;SDS011;1794;48.804;9.156;2022-09-09T09:57:52;1.50;;;0.63;;
3559;SDS011;1794;48.804;9.156;2022-09-09T10:00:20;1.20;;;0.60;;
3559;SDS011;1794;48.804;9.156;2022-09-09T10:02:49;2.77;;;0.80;;
3559;SDS011;1794;48.804;9.156;2022-09-09T10:05:20;1.50;;;0.70;;
3559;SDS011;1794;48.804;9.156;2022-09-09T10:07:59;2.00;;;0.83;;
3559;SDS011;1794;48.804;9.156;2022-09-09T10:10:29;2.23;;;0.70;;
3559;SDS011;1794;48.804;9.156;2022-09-09T10:13:05;2.70;;;0.80;;
3559;SDS011;1794;48.804;9.156;2022-09-09T10:15:39;1.93;;;1.00;;
3559;SDS011;1794;48.804;9.156;2022-09-09T10:21:20;5.67;;;1.00;;
3559;SDS011;1794;48.804;9.156;2022-09-09T10:24:00;2.37;;;0.97;;
3559;SDS011;1794;48.804;9.156;2022-09-09T10:26:39;2.97;;;0.90;;
3559;SDS011;1794;48.804;9.156;2022-09-09T10:29:18;2.43;;;1.03;;
3559;SDS011;1794;48.804;9.156;2022-09-09T10:32:01;10.33;;;1.67;;
3559;SDS011;1794;48.804;9.156;2022-09-09T10:34:45;2.03;;;1.00;;
3559;SDS011;1794;48.804;9.156;2022-09-09T10:37:27;3.80;;;1.53;;
3559;SDS011;1794;48.804;9.156;2022-09-09T10:40:08;4.03;;;0.97;;
3559;SDS011;1794;48.804;9.156;2022-09-09T10:42:49;3.73;;;1.40;;
3559;SDS011;1794;48.804;9.156;2022-09-09T10:45:17;2.70;;;1.00;;
3559;SDS011;1794;48.804;9.156;2022-09-09T10:47:52;3.33;;;1.30;;
3559;SDS011;1794;48.804;9.156;2022-09-09T10:50:35;3.10;;;1.10;;
3559;SDS011;1794;48.804;9.156;2022-09-09T10:53:14;4.20;;;1.23;;
3559;SDS011;1794;48.804;9.156;2022-09-09T10:55:48;1.90;;;0.87;;
3559;SDS011;1794;48.804;9.156;2022-09-09T10:58:19;2.70;;;0.90;;
3559;SDS011;1794;48.804;9.156;2022-09-09T11:00:51;2.47;;;1.17;;
3559;SDS011;1794;48.804;9.156;2022-09-09T11:03:23;1.80;;;0.90;;
3559;SDS011;1794;48.804;9.156;2022-09-09T11:05:53;2.43;;;1.20;;
3559;SDS011;1794;48.804;9.156;2022-09-09T11:08:25;1.60;;;0.90;;
3559;SDS011;1794;48.804;9.156;2022-09-09T11:10:57;3.20;;;1.13;;
3559;SDS011;1794;48.804;9.156;2022-09-09T11:13:30;2.23;;;1.27;;
3559;SDS011;1794;48.804;9.156;2022-09-09T11:16:05;3.63;;;1.00;;
3559;SDS011;1794;48.804;9.156;2022-09-09T11:18:42;3.33;;;1.30;;
3559;SDS011;1794;48.804;9.156;2022-09-09T11:21:11;2.50;;;0.80;;
3559;SDS011;1794;48.804;9.156;2022-09-09T11:23:46;5.23;;;1.30;;
3559;SDS011;1794;48.804;9.156;2022-09-09T11:26:21;1.60;;;0.70;;
3559;SDS011;1794;48.804;9.156;2022-09-09T11:29:01;2.30;;;0.80;;
3559;SDS011;1794;48.804;9.156;2022-09-09T11:31:52;2.00;;;0.77;;
3559;SDS011;1794;48.804;9.156;2022-09-09T11:34:35;2.17;;;0.80;;
3559;SDS011;1794;48.804;9.156;2022-09-09T11:37:17;2.50;;;0.90;;
3559;SDS011;1794;48.804;9.156;2022-09-09T11:40:04;1.50;;;0.60;;
3559;SDS011;1794;48.804;9.156;2022-09-09T11:42:42;1.40;;;0.70;;
3559;SDS011;1794;48.804;9.156;2022-09-09T11:45:10;1.10;;;0.40;;
3559;SDS011;1794;48.804;9.156;2022-09-09T11:47:51;1.23;;;0.70;;
3559;SDS011;1794;48.804;9.156;2022-09-09T11:50:35;2.50;;;0.80;;
3559;SDS011;1794;48.804;9.156;2022-09-09T11:53:14;2.23;;;0.70;;
3559;SDS011;1794;48.804;9.156;2022-09-09T11:58:39;1.80;;;0.70;;
3559;SDS011;1794;48.804;9.156;2022-09-09T12:04:10;1.50;;;0.50;;
3559;SDS011;1794;48.804;9.156;2022-09-09T12:06:44;2.20;;;0.50;;
3559;SDS011;1794;48.804;9.156;2022-09-09T12:09:17;1.90;;;0.50;;
3559;SDS011;1794;48.804;9.156;2022-09-09T12:11:49;1.60;;;0.63;;
3559;SDS011;1794;48.804;9.156;2022-09-09T12:14:20;1.93;;;0.43;;
3559;SDS011;1794;48.804;9.156;2022-09-09T12:16:49;2.50;;;1.27;;
3559;SDS011;1794;48.804;9.156;2022-09-09T12:19:18;1.50;;;0.50;;
3559;SDS011;1794;48.804;9.156;2022-09-09T12:21:48;2.17;;;0.60;;
3559;SDS011;1794;48.804;9.156;2022-09-09T12:24:23;1.77;;;0.50;;
3559;SDS011;1794;48.804;9.156;2022-09-09T12:26:59;2.10;;;0.60;;
3559;SDS011;1794;48.804;9.156;2022-09-09T12:29:36;1.43;;;0.40;;
3559;SDS011;1794;48.804;9.156;2022-09-09T12:32:08;1.97;;;0.80;;
3559;SDS011;1794;48.804;9.156;2022-09-09T12:34:38;2.07;;;0.70;;
3559;SDS011;1794;48.804;9.156;2022-09-09T12:37:11;3.93;;;0.80;;
3559;SDS011;1794;48.804;9.156;2022-09-09T12:39:44;1.13;;;0.40;;
3559;SDS011;1794;48.804;9.156;2022-09-09T12:42:18;2.00;;;0.53;;
3559;SDS011;1794;48.804;9.156;2022-09-09T12:44:52;1.53;;;0.50;;
3559;SDS011;1794;48.804;9.156;2022-09-09T12:47:21;2.00;;;0.50;;
3559;SDS011;1794;48.804;9.156;2022-09-09T12:49:51;1.67;;;0.67;;
3559;SDS011;1794;48.804;9.156;2022-09-09T12:52:23;1.83;;;0.60;;
3559;SDS011;1794;48.804;9.156;2022-09-09T12:54:55;2.90;;;0.77;;
3559;SDS011;1794;48.804;9.156;2022-09-09T12:57:24;1.80;;;0.47;;
3559;SDS011;1794;48.804;9.156;2022-09-09T13:00:04;1.20;;;0.50;;
3559;SDS011;1794;48.804;9.156;2022-09-09T13:02:45;1.40;;;0.50;;
3559;SDS011;1794;48.804;9.156;2022-09-09T13:05:16;2.40;;;0.60;;
3559;SDS011;1794;48.804;9.156;2022-09-09T13:07:44;1.27;;;0.50;;
3559;SDS011;1794;48.804;9.156;2022-09-09T13:10:12;1.30;;;0.50;;
3559;SDS011;1794;48.804;9.156;2022-09-09T13:12:41;1.47;;;0.50;;
3559;SDS011;1794;48.804;9.156;2022-09-09T13:15:12;2.70;;;0.90;;
3559;SDS011;1794;48.804;9.156;2022-09-09T13:17:49;1.70;;;0.70;;
3559;SDS011;1794;48.804;9.156;2022-09-09T13:20:20;2.53;;;0.67;;
3559;SDS011;1794;48.804;9.156;2022-09-09T13:22:48;2.10;;;0.70;;
3559;SDS011;1794;48.804;9.156;2022-09-09T13:25:18;2.10;;;0.60;;
3559;SDS011;1794;48.804;9.156;2022-09-09T13:27:55;1.83;;;0.80;;
3559;SDS011;1794;48.804;9.156;2022-09-09T13:30:28;1.60;;;0.60;;
3559;SDS011;1794;48.804;9.156;2022-09-09T13:32:59;1.83;;;0.97;;
3559;SDS011;1794;48.804;9.156;2022-09-09T13:35:32;2.00;;;0.63;;
3559;SDS011;1794;48.804;9.156;2022-09-09T13:37:59;1.50;;;0.63;;
3559;SDS011;1794;48.804;9.156;2022-09-09T13:40:33;3.00;;;0.70;;
3559;SDS011;1794;48.804;9.156;2022-09-09T13:43:03;2.40;;;0.60;;
3559;SDS011;1794;48.804;9.156;2022-09-09T13:45:30;2.60;;;0.70;;
3559;SDS011;1794;48.804;9.156;2022-09-09T13:48:08;1.53;;;0.60;;
3559;SDS011;1794;48.804;9.156;2022-09-09T13:50:36;3.07;;;0.90;;
3559;SDS011;1794;48.804;9.156;2022-09-09T13:53:02;2.73;;;0.60;;
3559;SDS011;1794;48.804;9.156;2022-09-09T13:55:30;2.00;;;0.70;;
3559;SDS011;1794;48.804;9.156;2022-09-09T13:57:57;2.57;;;0.73;;
3559;SDS011;1794;48.804;9.156;2022-09-09T14:00:28;2.23;;;0.67;;
3559;SDS011;1794;48.804;9.156;2022-09-09T14:02:56;3.13;;;0.87;;
3559;SDS011;1794;48.804;9.156;2022-09-09T14:05:23;1.60;;;0.40;;
3559;SDS011;1794;48.804;9.156;2022-09-09T14:07:50;2.20;;;0.63;;
3559;SDS011;1794;48.804;9.156;2022-09-09T14:10:17;2.40;;;0.70;;
3559;SDS011;1794;48.804;9.156;2022-09-09T14:12:44;1.43;;;0.60;;
3559;SDS011;1794;48.804;9.156;2022-09-09T14:15:12;2.13;;;0.77;;
3559;SDS011;1794;48.804;9.156;2022-09-09T14:17:40;1.27;;;0.60;;
3559;SDS011;1794;48.804;9.156;2022-09-09T14:20:08;4.67;;;0.90;;
3559;SDS011;1794;48.804;9.156;2022-09-09T14:22:37;1.63;;;0.60;;
3559;SDS011;1794;48.804;9.156;2022-09-09T14:25:06;1.77;;;0.67;;
3559;SDS011;1794;48.804;9.156;2022-09-09T14:27:33;1.93;;;0.70;;
3559;SDS011;1794;48.804;9.156;2022-09-09T14:30:00;1.53;;;0.60;;
3559;SDS011;1794;48.804;9.156;2022-09-09T14:34:58;2.63;;;0.40;;
3559;SDS011;1794;48.804;9.156;2022-09-09T14:37:25;1.50;;;0.47;;
3559;SDS011;1794;48.804;9.156;2022-09-09T14:39:56;1.93;;;0.60;;
3559;SDS011;1794;48.804;9.156;2022-09-09T14:42:22;1.97;;;0.70;;
3559;SDS011;1794;48.804;9.156;2022-09-09T14:44:49;1.73;;;0.47;;
3559;SDS011;1794;48.804;9.156;2022-09-09T14:47:16;1.80;;;1.00;;
3559;SDS011;1794;48.804;9.156;2022-09-09T14:49:42;4.13;;;0.77;;
3559;SDS011;1794;48.804;9.156;2022-09-09T14:52:10;2.40;;;0.60;;
3559;SDS011;1794;48.804;9.156;2022-09-09T14:54:38;1.60;;;0.53;;
3559;SDS011;1794;48.804;9.156;2022-09-09T14:57:05;1.20;;;0.40;;
3559;SDS011;1794;48.804;9.156;2022-09-09T14:59:31;2.50;;;0.80;;
3559;SDS011;1794;48.804;9.156;2022-09-09T15:01:59;1.50;;;0.63;;
3559;SDS011;1794;48.804;9.156;2022-09-09T15:04:29;1.20;;;0.60;;
3559;SDS011;1794;48.804;9.156;2022-09-09T15:06:56;2.47;;;0.40;;
3559;SDS011;1794;48.804;9.156;2022-09-09T15:09:24;1.77;;;0.50;;
3559;SDS011;1794;48.804;9.156;2022-09-09T15:11:51;2.03;;;0.50;;
3559;SDS011;1794;48.804;9.156;2022-09-09T15:14:18;2.20;;;0.50;;
3559;SDS011;1794;48.804;9.156;2022-09-09T15:16:44;2.17;;;0.50;;
3559;SDS011;1794;48.804;9.156;2022-09-09T15:19:11;1.30;;;0.50;;
3559;SDS011;1794;48.804;9.156;2022-09-09T15:21:38;2.83;;;0.60;;
3559;SDS011;1794;48.804;9.156;2022-09-09T15:24:05;1.80;;;0.60;;
3559;SDS011;1794;48.804;9.156;2022-09-09T15:26:34;2.50;;;0.73;;
3559;SDS011;1794;48.804;9.156;2022-09-09T15:29:03;4.70;;;0.90;;
3559;SDS011;1794;48.804;9.156;2022-09-09T15:31:30;1.87;;;0.67;;
3559;SDS011;1794;48.804;9.156;2022-09-09T15:33:58;4.00;;;0.70;;
3559;SDS011;1794;48.804;9.156;2022-09-09T15:36:27;2.37;;;0.60;;
3559;SDS011;1794;48.804;9.156;2022-09-09T15:38:55;1.97;;;0.53;;
3559;SDS011;1794;48.804;9.156;2022-09-09T15:41:22;1.20;;;0.50;;
3559;SDS011;1794;48.804;9.156;2022-09-09T15:43:51;3.53;;;0.67;;
3559;SDS011;1794;48.804;9.156;2022-09-09T15:46:22;1.63;;;0.60;;
3559;SDS011;1794;48.804;9.156;2022-09-09T15:48:54;1.33;;;0.57;;
3559;SDS011;1794;48.804;9.156;2022-09-09T15:51:22;3.27;;;0.93;;